KRBL

Red Bluff Municipal Airport

Red Bluff, California, USA
METAR KRBL 110454Z AUTO 34007KT 10SM CLR 11/02 A3021 RMK AO2 SLP229 T01060022
Observed Flight Rules
Dec-11 @ 04:54 UTC (21 minutes ago) Visual Flight Rules
Wind Visibility Clouds
340° at 7 knots 10 miles
  • Clear skies
Temperatures Readings
Current 11°C / 52°F
Dewpoint 2°C / 36°F
Humidity 54%
Altimeter 30.21" Hg
Pressure 1022.9 hPa
Elevation 104
METAR KRBL 110454Z AUTO 34007KT 10SM CLR 11/02 A3021 RMK AO2 SLP229 T01060022
Observed Flight Rules
Dec-11 @ 04:54 UTC
(21 minutes ago)
VFR
Wind Visibility
340° at 7 knots 10 miles
Clouds
  • Clear skies
Temperature Dewpoint
11°C / 52°F 2°C / 36°F
Humidity Altimeter Pressure
54% 30.21" Hg 1022.9 hPa